createdAt,value
2023-06-11T00:01:09.925Z,81.77
2023-06-11T00:03:58.150Z,81.73
2023-06-11T00:06:26.384Z,81.28
2023-06-11T00:08:56.361Z,81.27
2023-06-11T00:11:24.380Z,81.26
2023-06-11T00:13:54.287Z,81.41
2023-06-11T00:16:22.266Z,81.64
2023-06-11T00:18:50.165Z,81.81
2023-06-11T00:21:18.200Z,81.90
2023-06-11T00:23:46.038Z,81.96
2023-06-11T00:26:13.911Z,81.90
2023-06-11T00:28:41.824Z,81.84
2023-06-11T00:31:09.857Z,81.83
2023-06-11T00:33:37.908Z,82.06
2023-06-11T00:36:06.169Z,81.93
2023-06-11T00:38:34.614Z,82.09
2023-06-11T00:41:02.391Z,82.16
2023-06-11T00:43:32.193Z,82.04
2023-06-11T00:46:03.674Z,82.26
2023-06-11T00:48:31.892Z,82.44
2023-06-11T00:51:00.037Z,82.65
2023-06-11T00:53:27.968Z,82.98
2023-06-11T00:55:56.437Z,83.18
2023-06-11T00:58:24.890Z,83.20
2023-06-11T01:00:58.099Z,82.69
2023-06-11T01:03:28.801Z,82.51
2023-06-11T01:06:03.888Z,82.25
2023-06-11T01:08:36.324Z,82.39
2023-06-11T01:11:04.300Z,81.98
2023-06-11T01:13:32.140Z,81.86
2023-06-11T01:16:11.400Z,81.86
2023-06-11T01:18:54.546Z,82.30
2023-06-11T01:21:30.238Z,82.32
2023-06-11T01:24:31.018Z,82.41
2023-06-11T01:27:10.992Z,82.56
2023-06-11T01:29:46.674Z,82.52
2023-06-11T01:32:18.815Z,82.87
2023-06-11T01:34:46.717Z,83.05
2023-06-11T01:37:16.002Z,82.89
2023-06-11T01:39:46.924Z,83.25
2023-06-11T01:42:14.835Z,83.66
2023-06-11T01:44:42.715Z,83.55
2023-06-11T01:47:10.833Z,83.77
2023-06-11T01:49:38.603Z,83.96
2023-06-11T01:52:08.020Z,84.10
2023-06-11T01:54:36.416Z,84.18
2023-06-11T01:57:04.600Z,84.50
2023-06-11T01:59:32.473Z,84.35
2023-06-11T02:02:00.391Z,84.23
2023-06-11T02:04:28.278Z,84.05
2023-06-11T02:06:56.195Z,84.26
2023-06-11T02:09:24.195Z,84.25
2023-06-11T02:11:52.036Z,84.22
2023-06-11T02:14:20.083Z,84.11
2023-06-11T02:16:47.918Z,84.14
2023-06-11T02:19:15.866Z,84.47
2023-06-11T02:21:44.519Z,84.50
2023-06-11T02:24:12.479Z,84.40
2023-06-11T02:26:40.517Z,84.16
2023-06-11T02:29:08.343Z,84.34
2023-06-11T02:31:36.225Z,84.35
2023-06-11T02:34:04.164Z,84.19
2023-06-11T02:36:31.973Z,84.26
2023-06-11T02:38:59.885Z,84.20
2023-06-11T02:41:28.085Z,84.07
2023-06-11T02:43:55.926Z,84.12
2023-06-11T02:46:23.935Z,84.32
2023-06-11T02:48:51.943Z,84.31
2023-06-11T02:51:19.965Z,84.29
2023-06-11T02:53:47.968Z,84.29
2023-06-11T02:56:15.892Z,84.03
2023-06-11T02:58:45.570Z,83.86
2023-06-11T03:01:13.413Z,83.80
2023-06-11T03:03:41.406Z,83.96
2023-06-11T03:06:09.584Z,83.95
2023-06-11T03:08:37.506Z,83.87
2023-06-11T03:11:05.335Z,83.80
2023-06-11T03:13:33.290Z,83.74
2023-06-11T03:16:01.230Z,83.48
2023-06-11T03:18:29.156Z,83.37
2023-06-11T03:20:57.314Z,83.65
2023-06-11T03:23:25.230Z,83.60
2023-06-11T03:25:52.971Z,83.80
2023-06-11T03:28:20.729Z,83.92
2023-06-11T03:30:48.643Z,84.12
2023-06-11T03:33:16.568Z,84.32
2023-06-11T03:35:44.349Z,83.83
2023-06-11T03:38:12.202Z,83.57
2023-06-11T03:40:40.090Z,82.95
2023-06-11T03:43:07.876Z,82.10
2023-06-11T03:45:35.851Z,81.94
2023-06-11T03:48:05.479Z,81.63
2023-06-11T03:50:33.411Z,81.82
2023-06-11T03:53:01.618Z,82.22
2023-06-11T03:55:30.966Z,81.46
2023-06-11T03:57:59.189Z,81.08
2023-06-11T04:00:32.052Z,80.48
2023-06-11T04:03:01.125Z,80.60
2023-06-11T04:05:29.365Z,81.12
2023-06-11T04:07:57.159Z,81.16
2023-06-11T04:10:25.133Z,81.60
2023-06-11T04:12:53.201Z,81.41
2023-06-11T04:15:21.337Z,80.97
2023-06-11T04:17:49.221Z,80.83
2023-06-11T04:20:17.032Z,80.76
2023-06-11T04:22:45.593Z,80.54
2023-06-11T04:25:18.174Z,80.59
2023-06-11T04:27:49.359Z,80.37
2023-06-11T04:30:17.848Z,80.60
2023-06-11T04:32:46.137Z,80.11
2023-06-11T04:35:16.312Z,80.23
2023-06-11T04:37:44.703Z,79.92
2023-06-11T04:40:12.701Z,79.58
2023-06-11T04:42:43.356Z,79.14
2023-06-11T04:45:12.506Z,79.26
2023-06-11T04:47:41.814Z,78.86
2023-06-11T04:50:10.050Z,78.55
2023-06-11T04:52:44.146Z,78.01
2023-06-11T04:55:13.768Z,78.10
2023-06-11T04:57:42.945Z,78.04
2023-06-11T05:00:12.375Z,78.03
2023-06-11T05:02:44.943Z,78.35
2023-06-11T05:05:14.492Z,78.46
2023-06-11T05:07:43.055Z,78.47
2023-06-11T05:10:11.239Z,77.93
2023-06-11T05:12:39.275Z,77.45
2023-06-11T05:15:08.228Z,76.78
2023-06-11T05:17:37.132Z,76.53
2023-06-11T05:20:06.612Z,75.97
2023-06-11T05:22:35.671Z,76.02
2023-06-11T05:25:03.960Z,75.63
2023-06-11T05:27:33.101Z,75.76
2023-06-11T05:30:01.760Z,76.15
2023-06-11T05:32:32.684Z,75.93
2023-06-11T05:35:00.635Z,75.34
2023-06-11T05:37:28.503Z,74.90
2023-06-11T05:39:56.462Z,74.73
2023-06-11T05:42:24.389Z,74.37
2023-06-11T05:44:52.244Z,74.46
2023-06-11T05:47:20.089Z,74.55
2023-06-11T05:49:48.101Z,74.94
2023-06-11T05:52:16.063Z,74.41
2023-06-11T05:54:44.025Z,73.61
2023-06-11T05:57:28.203Z,73.16
2023-06-11T05:59:56.055Z,73.20
2023-06-11T06:02:24.106Z,73.08
2023-06-11T06:04:52.396Z,73.22
2023-06-11T06:07:20.340Z,72.79
2023-06-11T06:09:48.218Z,72.89
2023-06-11T06:12:17.043Z,72.49
2023-06-11T06:14:44.856Z,72.50
2023-06-11T06:17:12.749Z,72.09
2023-06-11T06:19:40.601Z,72.60
2023-06-11T06:22:08.787Z,72.32
2023-06-11T06:24:36.798Z,72.02
2023-06-11T06:27:05.188Z,72.11
2023-06-11T06:29:34.068Z,72.05
2023-06-11T06:32:02.195Z,71.71
2023-06-11T06:34:30.433Z,71.28
2023-06-11T06:36:58.341Z,71.09
2023-06-11T06:39:26.246Z,71.22
2023-06-11T06:41:54.024Z,70.78
2023-06-11T06:44:21.840Z,70.24
2023-06-11T06:46:50.306Z,70.05
2023-06-11T06:49:18.292Z,70.54
2023-06-11T06:51:46.166Z,69.88
2023-06-11T06:54:14.438Z,69.00
2023-06-11T06:56:42.510Z,69.01
2023-06-11T06:59:10.624Z,69.73
2023-06-11T07:01:38.512Z,70.17
2023-06-11T07:04:06.492Z,69.67
2023-06-11T07:06:34.403Z,69.15
2023-06-11T07:09:04.393Z,69.01
2023-06-11T07:11:32.377Z,68.55
2023-06-11T07:14:00.433Z,68.28
2023-06-11T07:16:28.472Z,68.24
2023-06-11T07:18:56.404Z,67.96
2023-06-11T07:21:24.670Z,67.84
2023-06-11T07:23:52.754Z,67.64
2023-06-11T07:26:20.660Z,67.30
2023-06-11T07:28:48.465Z,67.17
2023-06-11T07:31:16.443Z,67.03
2023-06-11T07:33:45.500Z,66.90
2023-06-11T07:36:13.335Z,67.06
2023-06-11T07:38:41.653Z,66.47
2023-06-11T07:41:09.640Z,65.72
2023-06-11T07:43:37.657Z,65.65
2023-06-11T07:46:06.008Z,65.69
2023-06-11T07:48:33.920Z,64.99
2023-06-11T07:51:01.865Z,64.09
2023-06-11T07:53:29.922Z,63.46
2023-06-11T07:55:58.497Z,62.17
2023-06-11T07:58:26.794Z,61.40
2023-06-11T08:00:54.732Z,62.54
2023-06-11T08:03:23.145Z,63.41
2023-06-11T08:05:51.795Z,62.71
2023-06-11T08:08:19.846Z,61.77
2023-06-11T08:10:51.766Z,61.61
2023-06-11T08:13:23.026Z,60.60
2023-06-11T08:15:51.779Z,60.73
2023-06-11T08:18:20.151Z,60.62
2023-06-11T08:20:48.609Z,61.13
2023-06-11T08:23:16.410Z,61.36
2023-06-11T08:25:44.425Z,62.03
2023-06-11T08:28:12.446Z,61.65
2023-06-11T08:30:40.372Z,61.42
2023-06-11T08:33:08.410Z,60.57
2023-06-11T08:35:36.417Z,60.95
2023-06-11T08:38:04.888Z,61.08
2023-06-11T08:40:39.811Z,59.94
2023-06-11T08:43:11.418Z,59.57
2023-06-11T08:45:39.459Z,59.20
2023-06-11T08:48:09.600Z,59.32
2023-06-11T08:50:39.050Z,58.87
2023-06-11T08:53:08.687Z,59.22
2023-06-11T08:55:36.509Z,58.00
2023-06-11T08:58:05.192Z,58.31
2023-06-11T09:00:33.194Z,58.20
2023-06-11T09:03:03.208Z,57.14
2023-06-11T09:05:34.631Z,56.44
2023-06-11T09:08:08.563Z,55.80
2023-06-11T09:10:50.365Z,55.50
2023-06-11T09:13:19.554Z,55.12
2023-06-11T09:15:49.633Z,55.29
2023-06-11T09:18:23.887Z,55.42
2023-06-11T09:20:57.100Z,55.24
2023-06-11T09:23:38.618Z,54.12
2023-06-11T09:26:06.570Z,53.88
2023-06-11T09:28:36.648Z,54.26
2023-06-11T09:31:05.886Z,53.66
2023-06-11T09:33:34.317Z,52.28
2023-06-11T09:36:02.803Z,51.83
2023-06-11T09:38:35.754Z,51.73
2023-06-11T09:41:08.181Z,52.14
2023-06-11T09:43:36.345Z,52.56
2023-06-11T09:46:04.504Z,51.75
2023-06-11T09:48:32.731Z,51.04
2023-06-11T09:51:03.869Z,52.06
2023-06-11T09:53:35.911Z,52.31
2023-06-11T09:56:11.796Z,51.66
2023-06-11T09:58:41.977Z,51.64
2023-06-11T10:01:12.646Z,50.72
2023-06-11T10:03:41.735Z,49.48
2023-06-11T10:06:17.321Z,48.57
2023-06-11T10:08:49.785Z,49.74
2023-06-11T10:11:23.894Z,49.15
2023-06-11T10:13:59.806Z,49.16
2023-06-11T10:16:29.060Z,49.33
2023-06-11T10:19:08.026Z,48.34
2023-06-11T10:21:51.717Z,48.37
2023-06-11T10:24:25.197Z,48.54
2023-06-11T10:27:08.702Z,47.19
2023-06-11T10:29:43.527Z,47.76
2023-06-11T10:32:29.525Z,49.59
2023-06-11T10:35:04.714Z,48.68
2023-06-11T10:37:34.404Z,48.80
2023-06-11T10:40:03.491Z,49.62
2023-06-11T10:42:40.077Z,49.54
2023-06-11T10:45:12.863Z,48.97
2023-06-11T10:47:41.985Z,49.65
2023-06-11T10:50:15.880Z,50.10
2023-06-11T10:52:49.792Z,50.52
2023-06-11T10:55:22.111Z,50.27
2023-06-11T10:58:00.477Z,50.28
2023-06-11T11:00:34.000Z,51.16
2023-06-11T11:03:05.082Z,51.24
2023-06-11T11:05:33.485Z,51.51
2023-06-11T11:08:02.198Z,51.86
2023-06-11T11:10:30.643Z,51.08
2023-06-11T11:12:59.757Z,51.01
2023-06-11T11:15:30.355Z,50.61
2023-06-11T11:17:58.465Z,49.94
2023-06-11T11:20:27.002Z,49.85
2023-06-11T11:22:57.362Z,50.37
2023-06-11T11:25:31.355Z,49.82
2023-06-11T11:27:59.753Z,48.59
2023-06-11T11:30:29.524Z,48.53
2023-06-11T11:32:58.597Z,49.20
2023-06-11T11:35:27.826Z,48.98
2023-06-11T11:37:56.223Z,48.66
2023-06-11T11:40:24.647Z,47.79
2023-06-11T11:42:57.259Z,48.41
2023-06-11T11:45:33.131Z,48.54
2023-06-11T11:48:04.925Z,48.10
2023-06-11T11:50:34.847Z,47.84
2023-06-11T11:53:04.658Z,48.32
2023-06-11T11:55:34.844Z,48.75
2023-06-11T11:58:07.771Z,48.25
2023-06-11T12:00:38.579Z,48.34
2023-06-11T12:03:09.453Z,48.86
2023-06-11T12:05:38.660Z,48.43
2023-06-11T12:08:07.585Z,48.37
2023-06-11T12:10:35.732Z,49.29
2023-06-11T12:13:04.423Z,49.46
2023-06-11T12:15:32.359Z,50.78
2023-06-11T12:18:00.295Z,51.48
2023-06-11T12:20:29.578Z,51.45
2023-06-11T12:22:57.590Z,51.25
2023-06-11T12:25:26.927Z,51.44
2023-06-11T12:27:55.639Z,51.59
2023-06-11T12:30:23.821Z,51.79
2023-06-11T12:32:52.801Z,52.22
2023-06-11T12:35:20.917Z,51.91
2023-06-11T12:37:48.859Z,51.66
2023-06-11T12:40:17.755Z,51.12
2023-06-11T12:42:45.928Z,51.52
2023-06-11T12:45:13.918Z,51.40
2023-06-11T12:47:42.475Z,52.19
2023-06-11T12:50:10.968Z,52.04
2023-06-11T12:52:40.958Z,52.51
2023-06-11T12:55:09.442Z,52.92
2023-06-11T12:57:37.200Z,53.44
2023-06-11T13:00:06.490Z,53.35
2023-06-11T13:02:34.571Z,52.95
2023-06-11T13:05:02.842Z,52.53
2023-06-11T13:07:31.020Z,52.02
2023-06-11T13:09:59.122Z,51.88
2023-06-11T13:12:28.646Z,51.69
2023-06-11T13:14:56.787Z,52.08
2023-06-11T13:17:24.717Z,52.87
2023-06-11T13:19:55.823Z,52.05
2023-06-11T13:22:23.986Z,52.05
2023-06-11T13:24:51.976Z,51.91
2023-06-11T13:27:19.809Z,52.19
2023-06-11T13:29:47.880Z,52.75
2023-06-11T13:32:16.993Z,52.71
2023-06-11T13:34:44.970Z,52.22
2023-06-11T13:37:13.473Z,53.04
2023-06-11T13:39:41.653Z,53.03
2023-06-11T13:42:11.547Z,52.99
2023-06-11T13:44:39.434Z,53.14
2023-06-11T13:47:07.874Z,53.78
2023-06-11T13:49:36.040Z,53.67
2023-06-11T13:52:04.346Z,52.73
2023-06-11T13:54:34.432Z,52.17
2023-06-11T13:57:02.601Z,52.31
2023-06-11T13:59:32.484Z,52.48
2023-06-11T14:02:02.682Z,53.01
2023-06-11T14:04:31.187Z,53.27
2023-06-11T14:06:59.294Z,53.75
2023-06-11T14:09:27.438Z,53.98
2023-06-11T14:11:55.436Z,52.55
2023-06-11T14:14:24.408Z,51.82
2023-06-11T14:16:52.840Z,52.76
2023-06-11T14:19:20.936Z,52.38
2023-06-11T14:21:48.893Z,51.65
2023-06-11T14:24:17.983Z,51.61
2023-06-11T14:26:46.548Z,51.42
2023-06-11T14:29:14.579Z,51.40
2023-06-11T14:31:42.530Z,52.29
2023-06-11T14:34:10.616Z,51.53
2023-06-11T14:36:38.633Z,50.63
2023-06-11T14:39:06.545Z,51.24
2023-06-11T14:41:34.532Z,51.25
2023-06-11T14:44:02.897Z,51.43
2023-06-11T14:46:30.914Z,50.25
2023-06-11T14:48:58.823Z,50.37
2023-06-11T14:51:27.768Z,50.07
2023-06-11T14:53:55.761Z,49.63
2023-06-11T14:56:23.892Z,49.44
2023-06-11T14:58:51.818Z,50.07
2023-06-11T15:01:19.727Z,50.34
2023-06-11T15:03:47.749Z,50.24
2023-06-11T15:06:16.169Z,49.73
2023-06-11T15:08:44.039Z,49.41
2023-06-11T15:11:11.815Z,49.65
2023-06-11T15:13:39.763Z,49.96
2023-06-11T15:16:07.785Z,49.75
2023-06-11T15:18:35.934Z,49.76
2023-06-11T15:21:04.011Z,50.19
2023-06-11T15:23:31.875Z,51.10
2023-06-11T15:25:59.831Z,51.68
2023-06-11T15:28:27.766Z,52.06
2023-06-11T15:30:55.913Z,52.11
2023-06-11T15:33:23.993Z,52.81
2023-06-11T15:35:51.981Z,53.35
2023-06-11T15:38:19.873Z,53.68
2023-06-11T15:40:47.674Z,54.32
2023-06-11T15:43:15.597Z,54.53
2023-06-11T15:45:43.506Z,54.87
2023-06-11T15:48:11.458Z,55.07
2023-06-11T15:50:39.537Z,55.50
2023-06-11T15:53:07.462Z,55.36
2023-06-11T15:55:36.066Z,55.31
2023-06-11T15:58:06.554Z,55.45
2023-06-11T16:00:36.076Z,55.50
2023-06-11T16:03:04.520Z,55.64
2023-06-11T16:05:32.729Z,55.42
2023-06-11T16:08:00.602Z,54.95
2023-06-11T16:10:28.583Z,54.78
2023-06-11T16:12:56.658Z,54.90
2023-06-11T16:15:24.573Z,55.24
2023-06-11T16:17:52.502Z,55.34
2023-06-11T16:20:20.427Z,55.11
2023-06-11T16:22:48.378Z,54.99
2023-06-11T16:25:16.257Z,55.41
2023-06-11T16:27:44.732Z,55.34
2023-06-11T16:30:13.752Z,55.28
2023-06-11T16:32:45.666Z,55.88
2023-06-11T16:35:13.981Z,55.84
2023-06-11T16:37:42.002Z,56.08
2023-06-11T16:40:10.103Z,56.17
2023-06-11T16:42:37.929Z,56.27
2023-06-11T16:45:06.540Z,56.24
2023-06-11T16:47:34.589Z,55.97
2023-06-11T16:50:02.866Z,56.02
2023-06-11T16:52:32.537Z,56.69
2023-06-11T16:55:02.370Z,56.82
2023-06-11T16:57:30.713Z,56.28
2023-06-11T16:59:59.570Z,55.99
2023-06-11T17:02:27.589Z,55.45
2023-06-11T17:04:56.030Z,55.20
2023-06-11T17:07:23.886Z,55.47
2023-06-11T17:09:51.812Z,55.61
2023-06-11T17:12:19.829Z,55.57
2023-06-11T17:14:47.848Z,55.94
2023-06-11T17:17:15.805Z,56.52
2023-06-11T17:19:46.325Z,56.76
2023-06-11T17:22:14.317Z,57.06
2023-06-11T17:24:42.194Z,57.04
2023-06-11T17:27:10.180Z,57.58
2023-06-11T17:29:38.032Z,57.38
2023-06-11T17:32:06.507Z,57.40
2023-06-11T17:34:34.478Z,57.87
2023-06-11T17:37:02.577Z,57.37
2023-06-11T17:39:30.607Z,57.83
2023-06-11T17:41:58.562Z,58.33
2023-06-11T17:44:26.480Z,58.27
2023-06-11T17:46:54.478Z,57.61
2023-06-11T17:49:22.463Z,57.78
2023-06-11T17:51:51.602Z,58.02
2023-06-11T17:54:19.488Z,58.25
2023-06-11T17:56:47.337Z,58.67
2023-06-11T17:59:15.255Z,58.48
2023-06-11T18:01:43.534Z,58.81
2023-06-11T18:04:11.357Z,59.16
2023-06-11T18:06:39.327Z,60.00
2023-06-11T18:09:07.480Z,59.86
2023-06-11T18:11:36.687Z,59.56
2023-06-11T18:14:04.575Z,59.86
2023-06-11T18:16:34.774Z,59.66
2023-06-11T18:19:03.894Z,60.15
2023-06-11T18:21:31.836Z,60.68
2023-06-11T18:23:59.819Z,60.66
2023-06-11T18:26:27.775Z,60.46
2023-06-11T18:28:55.985Z,60.77
2023-06-11T18:31:24.949Z,61.34
2023-06-11T18:33:55.044Z,61.31
2023-06-11T18:36:22.803Z,61.51
2023-06-11T18:38:50.836Z,61.44
2023-06-11T18:41:21.135Z,61.40
2023-06-11T18:43:49.045Z,61.54
2023-06-11T18:46:17.004Z,61.83
2023-06-11T18:48:47.541Z,62.17
2023-06-11T18:51:15.565Z,62.16
2023-06-11T18:53:43.792Z,62.80
2023-06-11T18:56:11.679Z,63.52
2023-06-11T18:58:39.772Z,63.72
2023-06-11T19:01:08.088Z,63.95
2023-06-11T19:03:39.343Z,64.56
2023-06-11T19:06:08.899Z,65.06
2023-06-11T19:08:36.924Z,65.53
2023-06-11T19:11:04.797Z,65.75
2023-06-11T19:13:32.695Z,66.53
2023-06-11T19:16:00.619Z,66.91
2023-06-11T19:18:28.437Z,66.80
2023-06-11T19:20:56.804Z,67.04
2023-06-11T19:23:26.536Z,67.04
2023-06-11T19:25:56.132Z,67.22
2023-06-11T19:28:23.983Z,67.54
2023-06-11T19:30:51.841Z,67.73
2023-06-11T19:33:19.816Z,67.97
2023-06-11T19:35:47.725Z,67.98
2023-06-11T19:38:15.776Z,68.33
2023-06-11T19:40:43.787Z,68.33
2023-06-11T19:43:11.788Z,68.52
2023-06-11T19:45:39.609Z,68.46
2023-06-11T19:48:07.497Z,68.29
2023-06-11T19:50:35.828Z,68.57
2023-06-11T19:53:03.972Z,68.48
2023-06-11T19:55:32.385Z,68.52
2023-06-11T19:58:00.750Z,68.48
2023-06-11T20:00:29.195Z,68.57
2023-06-11T20:02:57.167Z,68.86
2023-06-11T20:05:26.063Z,68.99
2023-06-11T20:07:53.930Z,69.08
2023-06-11T20:10:24.705Z,69.06
2023-06-11T20:12:52.478Z,69.12
2023-06-11T20:15:20.651Z,69.55
2023-06-11T20:17:48.586Z,69.57
2023-06-11T20:20:16.592Z,69.30
2023-06-11T20:22:45.955Z,69.00
2023-06-11T20:25:13.866Z,69.09
2023-06-11T20:27:41.735Z,68.97
2023-06-11T20:30:10.322Z,69.40
2023-06-11T20:32:38.523Z,69.79
2023-06-11T20:35:07.269Z,69.75
2023-06-11T20:37:35.796Z,70.11
2023-06-11T20:40:05.617Z,70.62
2023-06-11T20:42:33.451Z,70.94
2023-06-11T20:45:01.294Z,71.23
2023-06-11T20:47:29.655Z,71.31
2023-06-11T20:49:57.768Z,71.42
2023-06-11T20:52:27.462Z,71.72
2023-06-11T20:54:55.616Z,71.84
2023-06-11T20:57:23.904Z,72.14
2023-06-11T20:59:51.929Z,72.39
2023-06-11T21:02:20.189Z,72.52
2023-06-11T21:04:48.051Z,72.28
2023-06-11T21:07:16.654Z,72.39
2023-06-11T21:09:44.517Z,72.62
2023-06-11T21:12:13.404Z,72.93
2023-06-11T21:14:41.257Z,73.24
2023-06-11T21:17:09.200Z,73.46
2023-06-11T21:19:36.959Z,73.66
2023-06-11T21:22:05.434Z,73.71
2023-06-11T21:24:33.263Z,73.66
2023-06-11T21:27:01.151Z,73.80
2023-06-11T21:29:29.102Z,73.64
2023-06-11T21:31:57.165Z,73.67
2023-06-11T21:34:25.133Z,73.67
2023-06-11T21:36:53.017Z,73.49
2023-06-11T21:39:20.952Z,74.05
2023-06-11T21:41:50.535Z,73.95
2023-06-11T21:44:20.435Z,73.94
2023-06-11T21:46:48.289Z,73.97
2023-06-11T21:49:16.298Z,74.20
2023-06-11T21:51:46.195Z,74.28
2023-06-11T21:54:14.145Z,74.36
2023-06-11T21:56:41.906Z,74.53
2023-06-11T21:59:09.707Z,74.73
2023-06-11T22:01:37.901Z,74.55
2023-06-11T22:04:06.511Z,74.63
2023-06-11T22:06:34.751Z,74.64
2023-06-11T22:09:02.588Z,74.97
2023-06-11T22:11:31.737Z,75.07
2023-06-11T22:13:59.674Z,75.12
2023-06-11T22:16:29.101Z,75.33
2023-06-11T22:18:58.228Z,75.48
2023-06-11T22:21:26.146Z,75.74
2023-06-11T22:23:56.645Z,75.57
2023-06-11T22:26:24.675Z,75.64
2023-06-11T22:28:52.664Z,76.00
2023-06-11T22:31:20.640Z,75.86
2023-06-11T22:33:48.788Z,76.06
2023-06-11T22:36:16.690Z,75.71
2023-06-11T22:38:44.849Z,75.48
2023-06-11T22:41:12.668Z,75.29
2023-06-11T22:43:41.089Z,75.10
2023-06-11T22:46:08.995Z,74.96
2023-06-11T22:48:37.102Z,74.79
2023-06-11T22:51:11.205Z,74.97
2023-06-11T22:53:39.632Z,75.17
2023-06-11T22:56:08.114Z,75.30
2023-06-11T22:58:36.085Z,75.34
2023-06-11T23:01:04.162Z,75.56
2023-06-11T23:03:32.266Z,75.94
2023-06-11T23:06:00.636Z,75.89
2023-06-11T23:08:28.990Z,75.90
2023-06-11T23:10:56.898Z,75.99
2023-06-11T23:13:24.992Z,76.21
2023-06-11T23:15:52.884Z,76.49
2023-06-11T23:18:21.016Z,76.60
2023-06-11T23:20:50.341Z,76.46
2023-06-11T23:23:18.583Z,76.52
2023-06-11T23:25:50.574Z,76.32
2023-06-11T23:28:19.526Z,76.50
2023-06-11T23:30:47.380Z,77.09
2023-06-11T23:33:15.290Z,77.17
2023-06-11T23:35:43.357Z,76.90
2023-06-11T23:38:11.281Z,77.01
2023-06-11T23:40:39.185Z,77.17
2023-06-11T23:43:07.111Z,77.17
2023-06-11T23:45:35.060Z,76.99
2023-06-11T23:48:03.032Z,76.64
2023-06-11T23:50:31.162Z,76.53
2023-06-11T23:52:59.557Z,76.47
2023-06-11T23:55:27.627Z,77.06
2023-06-11T23:58:19.680Z,76.79
